Time;durP1;ratioP1;P1;durP2;ratioP2;P2;SDS_P1;SDS_P2;PMS_P1;PMS_P2;Temp;Humidity;BMP_temperature;BMP_pressure;BME280_temperature;BME280_humidity;BME280_pressure;Samples;Min_cycle;Max_cycle;Signal;HPM_P1;HPM_P2
2023/01/30 00:01:13;;;;;;;29.50;17.35;;;;;1.30;99165.00;;;;4936139;29;20048;-64
2023/01/30 00:03:40;;;;;;;29.40;17.70;;;;;1.30;99177.00;;;;4935806;29;20052;-64
2023/01/30 00:06:06;;;;;;;30.13;17.77;;;;;1.30;99183.00;;;;4918534;29;20056;-64
2023/01/30 00:08:33;;;;;;;29.02;17.10;;;;;1.30;99169.00;;;;4936047;29;20131;-64
2023/01/30 00:11:04;;;;;;;29.23;16.45;;;;;1.20;99162.00;;;;4918722;29;20031;-63
2023/01/30 00:13:31;;;;;;;32.50;18.35;;;;;1.20;99159.00;;;;4918789;29;20054;-64
2023/01/30 00:15:58;;;;;;;30.02;17.35;;;;;1.20;99159.00;;;;4935088;29;20071;-64
2023/01/30 00:18:25;;;;;;;30.38;17.65;;;;;1.30;99152.00;;;;4935631;29;20411;-64
2023/01/30 00:20:59;;;;;;;26.17;16.65;;;;;1.30;99147.00;;;;4935854;29;20039;-64
2023/01/30 00:23:26;;;;;;;;;;;;;1.30;99152.00;;;;4935018;29;20052;-63
2023/01/30 00:25:52;;;;;;;30.08;17.15;;;;;1.20;99147.00;;;;4934803;29;20295;-64
2023/01/30 00:28:19;;;;;;;32.78;17.60;;;;;1.20;99176.00;;;;4935550;29;20049;-64
2023/01/30 00:30:50;;;;;;;30.95;16.92;;;;;1.20;99164.00;;;;4935512;29;20066;-63
2023/01/30 00:33:19;;;;;;;29.52;16.80;;;;;1.20;99164.00;;;;4918499;29;20078;-62
2023/01/30 00:35:47;;;;;;;30.10;17.88;;;;;1.20;99168.00;;;;4918028;29;20054;-63
2023/01/30 00:38:14;;;;;;;29.00;18.48;;;;;1.20;99157.00;;;;4935460;29;20047;-63
2023/01/30 00:40:41;;;;;;;30.88;17.95;;;;;1.30;99156.00;;;;4903079;29;20047;-63
2023/01/30 00:48:45;;;;;;;30.23;18.10;;;;;1.20;99137.00;;;;4935490;29;20048;-63
2023/01/30 00:51:12;;;;;;;31.10;17.00;;;;;1.20;99110.00;;;;4918305;29;20142;-63
2023/01/30 00:53:38;;;;;;;33.78;18.73;;;;;1.20;99097.00;;;;4918247;29;20059;-63
2023/01/30 00:56:05;;;;;;;31.52;17.88;;;;;1.30;99095.00;;;;4934663;29;20039;-63
2023/01/30 00:58:32;;;;;;;32.60;18.27;;;;;1.20;99080.00;;;;4918140;29;20138;-60
2023/01/30 01:00:59;;;;;;;33.72;19.20;;;;;1.10;99096.00;;;;4917974;29;20528;-60
2023/01/30 01:03:26;;;;;;;27.58;16.73;;;;;1.10;99098.00;;;;4917829;29;20056;-60
2023/01/30 01:05:52;;;;;;;27.65;16.70;;;;;1.10;99090.00;;;;4917551;29;20138;-60
2023/01/30 01:08:21;;;;;;;29.83;16.30;;;;;1.10;99104.00;;;;4934832;29;20054;-60
2023/01/30 01:10:47;;;;;;;30.95;17.20;;;;;1.00;99098.00;;;;4917523;29;20053;-60
2023/01/30 01:13:14;;;;;;;30.83;17.13;;;;;0.90;99098.00;;;;4917572;29;20044;-60
2023/01/30 01:15:41;;;;;;;31.30;18.40;;;;;0.90;99088.00;;;;4934278;29;20044;-60
2023/01/30 01:18:07;;;;;;;28.30;16.92;;;;;0.90;99090.00;;;;4934504;29;20401;-61
2023/01/30 01:20:34;;;;;;;30.05;17.42;;;;;1.00;99072.00;;;;4934984;29;20560;-60
2023/01/30 01:23:01;;;;;;;29.35;16.52;;;;;1.00;99068.00;;;;4934824;29;20044;-62
2023/01/30 01:25:28;;;;;;;30.67;18.35;;;;;1.00;99057.00;;;;4934254;29;20055;-61
2023/01/30 01:27:54;;;;;;;31.90;17.38;;;;;0.90;99068.00;;;;4935350;29;20133;-60
2023/01/30 01:30:21;;;;;;;29.63;18.05;;;;;0.90;99078.00;;;;4917926;29;20573;-60
2023/01/30 01:32:48;;;;;;;30.95;17.23;;;;;0.90;99086.00;;;;4934368;29;20532;-61
2023/01/30 01:35:14;;;;;;;31.30;17.65;;;;;1.00;99088.00;;;;4920823;29;20460;-60
2023/01/30 01:37:41;;;;;;;32.25;16.67;;;;;1.00;99099.00;;;;4921087;29;20183;-62
2023/01/30 01:43:01;;;;;;;31.88;17.30;;;;;0.90;99085.00;;;;4938266;29;20048;-60
2023/01/30 01:45:30;;;;;;;30.55;17.38;;;;;0.90;99070.00;;;;4920587;29;20100;-61
2023/01/30 01:48:00;;;;;;;31.35;18.35;;;;;1.00;99079.00;;;;4938602;29;20066;-62
2023/01/30 01:50:37;;;;;;;29.00;16.83;;;;;1.00;99058.00;;;;4938009;29;20058;-61
2023/01/30 01:53:04;;;;;;;32.85;17.77;;;;;1.00;99057.00;;;;4938194;29;20056;-61
2023/01/30 01:55:31;;;;;;;31.45;17.77;;;;;1.00;99030.00;;;;4937738;29;20133;-62
2023/01/30 01:58:12;;;;;;;25.83;14.70;;;;;1.10;99006.00;;;;4920858;29;20060;-62
2023/01/30 02:00:38;;;;;;;28.83;16.50;;;;;1.00;99003.00;;;;4921040;29;20044;-62
2023/01/30 02:03:17;;;;;;;33.80;18.35;;;;;1.10;99022.00;;;;4938565;29;20052;-62
2023/01/30 02:05:49;;;;;;;30.08;17.45;;;;;1.10;99014.00;;;;4920671;29;20504;-61
2023/01/30 02:08:18;;;;;;;33.65;16.90;;;;;1.10;99004.00;;;;4940153;29;20048;-61
2023/01/30 02:10:57;;;;;;;31.67;17.98;;;;;1.10;99013.00;;;;4905791;29;20469;-62
2023/01/30 02:13:24;;;;;;;32.00;17.65;;;;;1.10;99017.00;;;;4922337;29;20058;-61
2023/01/30 02:15:55;;;;;;;31.60;17.90;;;;;1.10;99020.00;;;;4939462;29;20043;-61
2023/01/30 02:18:22;;;;;;;31.52;18.13;;;;;1.10;99012.00;;;;4924314;29;20059;-61
2023/01/30 02:21:23;;;;;;;32.22;18.23;;;;;1.10;99022.00;;;;4923814;29;20055;-60
2023/01/30 02:24:20;;;;;;;31.83;17.58;;;;;1.10;99013.00;;;;4937635;29;20078;-60
2023/01/30 02:27:07;;;;;;;34.67;19.20;;;;;1.10;99005.00;;;;4937768;29;20427;-60
2023/01/30 02:29:45;;;;;;;34.05;18.90;;;;;1.20;99000.00;;;;4937726;29;20074;-63
2023/01/30 02:32:35;;;;;;;36.28;19.42;;;;;1.20;98985.00;;;;4920839;29;20489;-62
2023/01/30 02:35:12;;;;;;;34.53;19.08;;;;;1.20;98963.00;;;;4919856;29;20082;-61
2023/01/30 02:38:29;;;;;;;32.08;18.00;;;;;1.10;98969.00;;;;4920327;29;20070;-61
2023/01/30 02:41:05;;;;;;;31.13;17.27;;;;;1.10;98973.00;;;;4920457;29;20516;-63
2023/01/30 02:43:55;;;;;;;32.42;18.55;;;;;1.10;98972.00;;;;4920125;29;20460;-61
2023/01/30 02:46:37;;;;;;;33.72;17.73;;;;;1.00;98980.00;;;;4920150;29;20047;-62
2023/01/30 02:49:09;;;;;;;32.05;18.30;;;;;1.10;99011.00;;;;4930719;29;20055;-60
2023/01/30 02:51:38;;;;;;;29.90;17.15;;;;;1.10;99004.00;;;;4928385;29;20067;-61
2023/01/30 02:54:06;;;;;;;37.33;19.35;;;;;1.10;98982.00;;;;4937062;29;20044;-66
2023/01/30 02:56:51;;;;;;;33.97;19.23;;;;;1.10;98989.00;;;;4920097;29;20398;-61
2023/01/30 02:59:30;;;;;;;;;;;;;1.10;98989.00;;;;4920456;29;20080;-62
2023/01/30 03:02:24;;;;;;;34.85;19.42;;;;;1.00;98990.00;;;;4919704;29;19923;-62
2023/01/30 03:05:06;;;;;;;38.38;19.85;;;;;1.00;98988.00;;;;4919007;29;20115;-62
2023/01/30 03:07:39;;;;;;;35.58;20.33;;;;;0.90;98983.00;;;;4920041;29;20515;-61
2023/01/30 03:10:24;;;;;;;35.80;19.45;;;;;0.90;98985.00;;;;4936579;29;20063;-62
2023/01/30 03:13:33;;;;;;;37.33;20.20;;;;;0.90;98981.00;;;;4919424;29;20055;-62
2023/01/30 03:16:09;;;;;;;33.40;19.10;;;;;0.90;98978.00;;;;4903449;29;20048;-62
2023/01/30 03:18:39;;;;;;;34.92;19.27;;;;;0.80;98980.00;;;;4936366;29;20082;-62
2023/01/30 03:21:07;;;;;;;39.20;22.08;;;;;0.90;98979.00;;;;4919216;29;20071;-62
2023/01/30 03:23:33;;;;;;;39.22;21.33;;;;;0.90;98985.00;;;;4936373;29;20044;-62
2023/01/30 03:26:04;;;;;;;37.67;21.20;;;;;0.90;98982.00;;;;4918566;29;20461;-62
2023/01/30 03:28:32;;;;;;;37.53;20.67;;;;;0.90;98976.00;;;;4919367;29;20528;-63
2023/01/30 03:30:58;;;;;;;42.28;20.85;;;;;0.90;98965.00;;;;4919225;29;20054;-60
2023/01/30 03:33:25;;;;;;;40.85;22.02;;;;;0.80;98968.00;;;;4918872;29;20047;-60
2023/01/30 03:35:52;;;;;;;37.90;21.45;;;;;0.80;98962.00;;;;4918431;29;20051;-61
2023/01/30 03:38:19;;;;;;;43.00;20.73;;;;;0.80;98981.00;;;;4936092;29;20048;-60
2023/01/30 03:40:48;;;;;;;40.35;21.77;;;;;0.70;98978.00;;;;4935978;29;20453;-62
2023/01/30 03:43:15;;;;;;;41.30;21.73;;;;;0.80;98989.00;;;;4918857;29;20051;-61
2023/01/30 03:45:42;;;;;;;39.00;21.63;;;;;0.80;98988.00;;;;4918366;29;20054;-60
2023/01/30 03:48:09;;;;;;;42.97;21.55;;;;;0.80;98994.00;;;;4918863;29;20135;-61
2023/01/30 03:50:35;;;;;;;45.08;22.88;;;;;0.90;98997.00;;;;4918679;29;20138;-63
2023/01/30 03:53:02;;;;;;;37.72;20.65;;;;;0.90;98990.00;;;;4919203;29;20044;-61
2023/01/30 03:55:29;;;;;;;40.33;20.73;;;;;0.80;98976.00;;;;4918358;29;20159;-59
2023/01/30 03:57:57;;;;;;;38.60;20.40;;;;;0.90;98969.00;;;;4936136;29;20040;-61
2023/01/30 04:00:26;;;;;;;34.28;19.75;;;;;0.80;98969.00;;;;4918778;29;20058;-60
2023/01/30 04:02:54;;;;;;;36.35;19.60;;;;;0.90;98975.00;;;;4918751;29;20501;-61
2023/01/30 04:05:20;;;;;;;35.92;20.20;;;;;0.80;98974.00;;;;4918391;29;20134;-61
2023/01/30 04:07:54;;;;;;;35.03;19.13;;;;;0.80;98968.00;;;;4919020;29;20516;-61
2023/01/30 04:10:21;;;;;;;36.75;19.05;;;;;0.90;98957.00;;;;4918828;29;20047;-61
2023/01/30 04:12:48;;;;;;;34.33;18.65;;;;;0.90;98954.00;;;;4918640;29;20126;-61
2023/01/30 04:15:16;;;;;;;32.25;18.52;;;;;0.90;98956.00;;;;4918128;29;20059;-60
2023/01/30 04:18:01;;;;;;;30.45;17.00;;;;;1.00;98963.00;;;;4936159;29;20063;-62
2023/01/30 04:20:44;;;;;;;27.88;16.77;;;;;1.00;98981.00;;;;4918713;29;20043;-62
2023/01/30 04:23:12;;;;;;;31.85;17.45;;;;;1.00;98969.00;;;;4918754;29;20056;-62
2023/01/30 04:25:39;;;;;;;31.15;17.52;;;;;1.10;98985.00;;;;4918081;29;20056;-62
2023/01/30 04:28:08;;;;;;;32.55;17.48;;;;;1.10;98972.00;;;;4918641;29;20055;-61
2023/01/30 04:30:36;;;;;;;32.08;17.92;;;;;1.10;98966.00;;;;4918637;29;20055;-61
2023/01/30 04:33:22;;;;;;;28.45;16.38;;;;;1.10;98962.00;;;;4935874;29;20099;-61
2023/01/30 04:35:53;;;;;;;30.15;16.52;;;;;1.20;98964.00;;;;4917969;29;20102;-61
2023/01/30 04:38:20;;;;;;;27.23;16.13;;;;;1.20;98956.00;;;;4935765;29;20106;-62
2023/01/30 04:40:51;;;;;;;26.30;15.68;;;;;1.20;98959.00;;;;4918743;29;20536;-62
2023/01/30 04:43:20;;;;;;;28.00;16.17;;;;;1.10;98946.00;;;;4918643;29;20495;-62
2023/01/30 04:45:50;;;;;;;26.95;15.82;;;;;1.10;98946.00;;;;4935107;29;20052;-62
2023/01/30 04:48:19;;;;;;;30.25;16.30;;;;;1.20;98938.00;;;;4918152;29;20152;-62
2023/01/30 04:50:50;;;;;;;32.80;17.27;;;;;1.20;98922.00;;;;4918141;29;20063;-62
2023/01/30 04:53:18;;;;;;;27.83;16.00;;;;;1.20;98924.00;;;;4918202;29;20138;-65
2023/01/30 04:55:46;;;;;;;25.48;15.18;;;;;1.20;98923.00;;;;4918004;29;20494;-63
2023/01/30 04:58:14;;;;;;;26.92;16.13;;;;;1.10;98930.00;;;;4918829;29;20143;-62
2023/01/30 05:00:41;;;;;;;29.83;16.83;;;;;1.20;98936.00;;;;4918968;29;20052;-63
2023/01/30 05:03:07;;;;;;;25.92;14.70;;;;;1.20;98929.00;;;;4918182;29;20044;-62
2023/01/30 05:05:34;;;;;;;28.58;15.85;;;;;1.10;98941.00;;;;4918075;29;20111;-62
2023/01/30 05:08:01;;;;;;;31.48;16.60;;;;;1.10;98917.00;;;;4902433;29;20098;-63
2023/01/30 05:10:27;;;;;;;25.48;14.77;;;;;1.10;98900.00;;;;4935404;29;20171;-62
2023/01/30 05:12:54;;;;;;;25.70;15.15;;;;;1.10;98900.00;;;;4934977;29;20036;-61
2023/01/30 05:15:21;;;;;;;26.02;15.43;;;;;1.10;98886.00;;;;4917906;29;20044;-61
2023/01/30 05:17:47;;;;;;;29.15;15.45;;;;;1.10;98879.00;;;;4934907;29;20063;-62
2023/01/30 05:20:14;;;;;;;30.63;16.85;;;;;1.00;98880.00;;;;4939329;29;20509;-62
2023/01/30 05:22:40;;;;;;;30.98;16.92;;;;;1.00;98881.00;;;;4940787;29;20048;-61
2023/01/30 05:25:08;;;;;;;29.90;16.27;;;;;1.10;98880.00;;;;4940697;29;20058;-61
2023/01/30 05:27:34;;;;;;;29.85;17.00;;;;;1.10;98886.00;;;;4924194;29;20055;-61
2023/01/30 05:30:01;;;;;;;29.55;16.55;;;;;1.10;98880.00;;;;4941414;29;20051;-63
2023/01/30 05:32:29;;;;;;;30.70;16.60;;;;;1.20;98876.00;;;;4940929;29;20099;-63
2023/01/30 05:34:56;;;;;;;29.58;16.50;;;;;1.20;98867.00;;;;4941519;29;20055;-61
2023/01/30 05:37:23;;;;;;;26.02;14.68;;;;;1.20;98858.00;;;;4940110;29;20051;-62
2023/01/30 05:39:50;;;;;;;27.00;15.68;;;;;1.20;98859.00;;;;4943346;29;20071;-63
2023/01/30 05:42:16;;;;;;;21.88;14.25;;;;;1.30;98869.00;;;;4927774;29;20051;-66
2023/01/30 05:44:43;;;;;;;25.42;13.57;;;;;1.30;98867.00;;;;4944893;29;20135;-63
2023/01/30 05:47:09;;;;;;;21.00;12.85;;;;;1.30;98882.00;;;;4925056;29;20078;-62
2023/01/30 05:49:36;;;;;;;24.25;12.30;;;;;1.30;98885.00;;;;4940227;29;20044;-63
2023/01/30 05:52:03;;;;;;;24.13;13.50;;;;;1.40;98878.00;;;;4926222;29;20071;-62
2023/01/30 05:54:29;;;;;;;22.45;13.30;;;;;1.40;98874.00;;;;4928159;29;20146;-63
2023/01/30 05:56:56;;;;;;;23.52;13.63;;;;;1.40;98887.00;;;;4927252;29;20062;-62
2023/01/30 05:59:24;;;;;;;24.80;13.90;;;;;1.40;98909.00;;;;4925483;29;20072;-62
2023/01/30 06:01:50;;;;;;;24.23;13.80;;;;;1.50;98892.00;;;;4940919;29;20047;-62
2023/01/30 06:04:17;;;;;;;21.55;12.68;;;;;1.50;98870.00;;;;4940011;29;20047;-62
2023/01/30 06:06:43;;;;;;;25.08;14.15;;;;;1.50;98867.00;;;;4939653;29;20054;-62
2023/01/30 06:09:10;;;;;;;24.40;13.75;;;;;1.50;98875.00;;;;4924093;29;20059;-62
2023/01/30 06:11:37;;;;;;;25.17;14.38;;;;;1.50;98867.00;;;;4923261;29;20040;-62
2023/01/30 06:14:04;;;;;;;24.83;15.30;;;;;1.50;98860.00;;;;4920168;29;20059;-63
2023/01/30 06:16:30;;;;;;;25.85;15.05;;;;;1.50;98870.00;;;;4935217;29;20058;-63
2023/01/30 06:18:57;;;;;;;24.33;14.73;;;;;1.50;98874.00;;;;4935137;29;20165;-64
2023/01/30 06:21:24;;;;;;;25.48;14.60;;;;;1.50;98873.00;;;;4921052;29;20516;-62
2023/01/30 06:23:51;;;;;;;23.25;14.32;;;;;1.60;98873.00;;;;4938744;29;20054;-64
2023/01/30 06:26:17;;;;;;;26.75;15.27;;;;;1.60;98870.00;;;;4921196;29;20138;-60
2023/01/30 06:28:44;;;;;;;27.75;15.65;;;;;1.60;98873.00;;;;4938555;29;20082;-62
2023/01/30 06:31:10;;;;;;;29.63;16.10;;;;;1.70;98868.00;;;;4920942;29;20059;-63
2023/01/30 06:33:37;;;;;;;23.60;14.13;;;;;1.70;98891.00;;;;4938396;29;20102;-63
2023/01/30 06:36:04;;;;;;;26.45;14.73;;;;;1.70;98894.00;;;;4921042;29;20425;-61
2023/01/30 06:38:30;;;;;;;25.17;14.30;;;;;1.70;98876.00;;;;4922617;29;20046;-63
2023/01/30 06:40:57;;;;;;;25.38;14.93;;;;;1.70;98861.00;;;;4921467;29;20505;-62
2023/01/30 06:43:24;;;;;;;24.10;14.18;;;;;1.70;98857.00;;;;4939745;29;20079;-62
2023/01/30 06:45:50;;;;;;;24.38;14.45;;;;;1.70;98856.00;;;;4921392;29;20071;-62
2023/01/30 06:48:17;;;;;;;23.98;14.27;;;;;1.70;98854.00;;;;4938468;29;20055;-63
2023/01/30 06:50:46;;;;;;;26.70;15.23;;;;;1.70;98864.00;;;;4938049;29;20066;-62
2023/01/30 06:53:13;;;;;;;25.48;14.90;;;;;1.70;98866.00;;;;4938732;29;20039;-62
2023/01/30 06:55:40;;;;;;;24.30;14.77;;;;;1.70;98883.00;;;;4938421;29;20066;-63
2023/01/30 06:58:09;;;;;;;26.42;15.25;;;;;1.70;98895.00;;;;4938783;29;20130;-62
2023/01/30 07:00:41;;;;;;;26.58;15.13;;;;;1.70;98872.00;;;;4921582;29;20480;-63
2023/01/30 07:03:12;;;;;;;26.00;15.65;;;;;1.70;98880.00;;;;4922344;29;20055;-62
2023/01/30 07:05:40;;;;;;;26.50;15.57;;;;;1.70;98883.00;;;;4921914;29;20059;-63
2023/01/30 07:08:07;;;;;;;25.65;15.32;;;;;1.80;98884.00;;;;4939088;29;20099;-62
2023/01/30 07:10:34;;;;;;;27.35;16.10;;;;;1.90;98892.00;;;;4938975;29;20071;-62
2023/01/30 07:13:01;;;;;;;29.55;17.00;;;;;1.90;98894.00;;;;4938500;29;20099;-63
2023/01/30 07:15:28;;;;;;;26.80;16.15;;;;;1.80;98884.00;;;;4937041;29;20048;-60
2023/01/30 07:17:55;;;;;;;23.88;14.90;;;;;1.70;98869.00;;;;4937461;29;20078;-60
2023/01/30 07:20:21;;;;;;;28.42;15.18;;;;;1.70;98871.00;;;;4920694;29;20048;-62
2023/01/30 07:22:55;;;;;;;28.65;15.63;;;;;1.80;98865.00;;;;4937465;29;20086;-63
2023/01/30 07:25:24;;;;;;;26.65;16.58;;;;;1.80;98867.00;;;;4937678;29;20040;-61
2023/01/30 07:27:59;;;;;;;25.90;15.00;;;;;1.80;98865.00;;;;4920679;29;20170;-62
2023/01/30 07:30:28;;;;;;;24.10;13.82;;;;;1.80;98859.00;;;;4937861;29;20118;-61
2023/01/30 07:32:57;;;;;;;23.80;14.88;;;;;1.80;98855.00;;;;4937392;29;20071;-61
2023/01/30 07:35:25;;;;;;;24.55;14.23;;;;;1.80;98871.00;;;;4936982;29;20048;-62
2023/01/30 07:37:52;;;;;;;22.52;14.20;;;;;1.80;98875.00;;;;4921884;29;20043;-62
2023/01/30 07:40:19;;;;;;;22.33;13.93;;;;;1.70;98878.00;;;;4939187;29;20040;-64
2023/01/30 07:43:01;;;;;;;22.13;13.60;;;;;1.70;98886.00;;;;4939156;29;20050;-62
2023/01/30 07:45:43;;;;;;;27.65;13.13;;;;;1.80;98857.00;;;;4939562;29;20067;-62
2023/01/30 07:48:11;;;;;;;20.88;12.30;;;;;1.80;98866.00;;;;4938693;29;20055;-62
2023/01/30 07:50:38;;;;;;;21.20;13.00;;;;;1.80;98876.00;;;;4938034;29;20067;-62
2023/01/30 07:53:07;;;;;;;21.60;13.07;;;;;1.80;98865.00;;;;4920863;29;20044;-62
2023/01/30 07:55:34;;;;;;;21.92;11.77;;;;;1.80;98871.00;;;;4920199;29;20043;-60
2023/01/30 07:58:10;;;;;;;20.23;13.63;;;;;1.80;98868.00;;;;4937570;29;20075;-62
2023/01/30 08:00:36;;;;;;;22.08;12.80;;;;;1.80;98851.00;;;;4937643;29;20386;-61
2023/01/30 08:03:03;;;;;;;17.95;11.82;;;;;1.80;98877.00;;;;4937317;29;20063;-60
2023/01/30 08:05:29;;;;;;;21.52;13.07;;;;;1.80;98868.00;;;;4920332;29;20630;-61
2023/01/30 08:07:56;;;;;;;19.98;11.95;;;;;1.90;98874.00;;;;4920914;29;20481;-61
2023/01/30 08:10:23;;;;;;;23.52;13.63;;;;;1.80;98874.00;;;;4937437;29;20413;-61
2023/01/30 08:12:50;;;;;;;21.73;12.85;;;;;1.80;98872.00;;;;4937217;29;20048;-62
2023/01/30 08:15:17;;;;;;;19.77;12.63;;;;;1.90;98872.00;;;;4937165;29;20505;-62
2023/01/30 08:17:43;;;;;;;17.90;11.23;;;;;1.80;98878.00;;;;4937448;29;20094;-62
2023/01/30 08:20:10;;;;;;;20.25;12.63;;;;;1.80;98883.00;;;;4937189;29;20066;-62
2023/01/30 08:22:37;;;;;;;20.73;13.20;;;;;1.90;98878.00;;;;4936855;29;20489;-62
2023/01/30 08:25:04;;;;;;;18.33;12.55;;;;;1.90;98877.00;;;;4919535;29;20055;-62
2023/01/30 08:27:30;;;;;;;19.67;12.30;;;;;1.90;98875.00;;;;4937093;29;20107;-62
2023/01/30 08:29:57;;;;;;;18.92;12.60;;;;;1.90;98873.00;;;;4937765;29;20493;-61
2023/01/30 08:32:23;;;;;;;18.38;11.07;;;;;1.90;98853.00;;;;4937342;29;20044;-62
2023/01/30 08:34:50;;;;;;;17.33;11.55;;;;;1.90;98863.00;;;;4936939;29;20050;-62
2023/01/30 08:37:16;;;;;;;15.80;11.15;;;;;1.90;98851.00;;;;4936822;29;20056;-62
2023/01/30 08:39:43;;;;;;;16.50;9.95;;;;;1.90;98870.00;;;;4937411;29;20048;-62
2023/01/30 08:42:09;;;;;;;15.52;9.73;;;;;1.90;98871.00;;;;4940046;29;20047;-62
2023/01/30 08:44:36;;;;;;;16.85;10.20;;;;;1.90;98864.00;;;;4938896;29;20489;-62
2023/01/30 08:47:02;;;;;;;16.85;11.00;;;;;2.00;98863.00;;;;4939389;29;20044;-62
2023/01/30 08:49:29;;;;;;;13.48;8.93;;;;;2.10;98870.00;;;;4939497;29;20130;-62
2023/01/30 08:51:55;;;;;;;16.40;10.52;;;;;2.10;98874.00;;;;4921592;29;20047;-62
2023/01/30 08:54:22;;;;;;;17.45;10.15;;;;;2.10;98864.00;;;;4921363;29;20063;-61
2023/01/30 08:56:49;;;;;;;13.02;8.95;;;;;2.10;98858.00;;;;4939548;29;20048;-63
2023/01/30 08:59:15;;;;;;;14.18;9.65;;;;;2.20;98858.00;;;;4940466;29;20055;-62
2023/01/30 09:01:42;;;;;;;13.82;8.77;;;;;2.30;98858.00;;;;4922181;29;20036;-62
2023/01/30 09:04:08;;;;;;;12.10;9.07;;;;;2.30;98856.00;;;;4938751;29;20110;-62
2023/01/30 09:06:35;;;;;;;13.60;9.45;;;;;2.40;98857.00;;;;4921279;29;20051;-62
2023/01/30 09:09:01;;;;;;;15.70;10.38;;;;;2.50;98852.00;;;;4920998;29;20060;-62
2023/01/30 09:11:28;;;;;;;13.50;8.65;;;;;2.50;98858.00;;;;4935817;29;20043;-61
2023/01/30 09:13:55;;;;;;;13.98;8.98;;;;;2.50;98850.00;;;;4918200;29;20050;-62
2023/01/30 09:16:21;;;;;;;12.23;8.63;;;;;2.60;98863.00;;;;4919289;29;20047;-61
2023/01/30 09:18:48;;;;;;;9.35;7.20;;;;;2.60;98864.00;;;;4920163;29;20481;-62
2023/01/30 09:21:14;;;;;;;11.75;8.38;;;;;2.60;98863.00;;;;4937711;29;20044;-62
2023/01/30 09:23:41;;;;;;;11.60;8.27;;;;;2.60;98859.00;;;;4936947;29;20047;-62
2023/01/30 09:26:07;;;;;;;11.93;7.35;;;;;2.70;98856.00;;;;4936461;29;20052;-62
2023/01/30 09:28:34;;;;;;;11.98;8.07;;;;;2.60;98860.00;;;;4937272;29;20082;-62
2023/01/30 09:31:01;;;;;;;11.27;7.82;;;;;2.60;98862.00;;;;4936715;29;20401;-62
2023/01/30 09:33:28;;;;;;;10.68;7.68;;;;;2.70;98830.00;;;;4935480;29;20054;-63
2023/01/30 09:35:55;;;;;;;10.35;7.05;;;;;2.60;98806.00;;;;4935147;29;20057;-62
2023/01/30 09:38:22;;;;;;;10.73;7.03;;;;;2.70;98823.00;;;;4935574;29;20039;-62
2023/01/30 09:40:57;;;;;;;11.00;8.30;;;;;2.70;98812.00;;;;4935590;29;20058;-64
2023/01/30 09:43:39;;;;;;;11.23;7.70;;;;;2.70;98812.00;;;;4935988;29;20040;-61
2023/01/30 09:46:30;;;;;;;10.23;7.18;;;;;2.70;98813.00;;;;4935878;29;20044;-61
2023/01/30 09:49:40;;;;;;;9.90;7.35;;;;;2.70;98836.00;;;;4918868;29;20131;-63
2023/01/30 09:52:28;;;;;;;10.07;7.03;;;;;2.70;98842.00;;;;4882283;29;20138;-62
2023/01/30 09:55:13;;;;;;;10.88;7.20;;;;;2.80;98832.00;;;;4919476;29;20114;-62
2023/01/30 09:57:40;;;;;;;10.38;7.15;;;;;2.90;98848.00;;;;4921957;29;20051;-63
2023/01/30 10:00:15;;;;;;;10.98;7.72;;;;;2.90;98848.00;;;;4922135;29;20053;-63
2023/01/30 10:02:56;;;;;;;8.63;6.43;;;;;3.00;98855.00;;;;4922217;29;20122;-62
2023/01/30 10:05:48;;;;;;;10.23;7.03;;;;;3.00;98865.00;;;;4938512;29;20059;-62
2023/01/30 10:08:23;;;;;;;9.95;6.90;;;;;3.10;98856.00;;;;4939045;29;20047;-63
2023/01/30 10:11:08;;;;;;;8.75;6.40;;;;;3.00;98856.00;;;;4939086;29;20417;-62
2023/01/30 10:13:53;;;;;;;8.48;6.00;;;;;3.00;98846.00;;;;4938702;29;20135;-62
2023/01/30 10:16:38;;;;;;;7.18;5.35;;;;;3.00;98859.00;;;;4938194;29;20516;-62
2023/01/30 10:19:16;;;;;;;8.90;6.47;;;;;3.00;98850.00;;;;4938825;29;20048;-62
2023/01/30 10:22:23;;;;;;;7.40;5.78;;;;;3.10;98850.00;;;;4938521;29;20109;-63
2023/01/30 10:25:10;;;;;;;9.40;6.80;;;;;3.20;98838.00;;;;4938462;29;20055;-63
2023/01/30 10:27:45;;;;;;;9.70;6.53;;;;;3.20;98838.00;;;;4940452;29;20552;-63
2023/01/30 10:30:14;;;;;;;9.10;6.28;;;;;3.20;98836.00;;;;4941421;29;20051;-62
2023/01/30 10:33:04;;;;;;;9.90;7.65;;;;;3.20;98845.00;;;;4922785;29;20048;-63
2023/01/30 10:35:37;;;;;;;8.80;6.80;;;;;3.20;98826.00;;;;4939047;29;20060;-63
2023/01/30 10:38:06;;;;;;;9.98;6.97;;;;;3.10;98829.00;;;;4939783;29;20044;-62
2023/01/30 10:40:41;;;;;;;9.20;6.75;;;;;3.20;98831.00;;;;4941124;29;20054;-61
2023/01/30 10:43:32;;;;;;;9.38;7.20;;;;;3.20;98830.00;;;;4939692;29;20047;-61
2023/01/30 10:46:31;;;;;;;9.95;7.20;;;;;3.30;98845.00;;;;4938697;29;20047;-61
2023/01/30 10:49:20;;;;;;;8.88;6.95;;;;;3.30;98829.00;;;;4939453;29;20119;-60
2023/01/30 10:51:51;;;;;;;9.40;6.68;;;;;3.40;98816.00;;;;4939226;29;20047;-61
2023/01/30 10:54:36;;;;;;;9.38;7.00;;;;;3.50;98824.00;;;;4938553;29;20079;-61
2023/01/30 10:57:26;;;;;;;9.35;6.35;;;;;3.50;98825.00;;;;4922351;29;20047;-63
2023/01/30 11:00:22;;;;;;;11.45;9.20;;;;;3.60;98827.00;;;;4939643;29;20048;-62
2023/01/30 11:03:19;;;;;;;10.30;7.97;;;;;3.60;98827.00;;;;4939292;29;20067;-62
2023/01/30 11:05:55;;;;;;;9.38;7.13;;;;;3.70;98818.00;;;;4938264;29;20393;-62
2023/01/30 11:08:27;;;;;;;8.68;6.15;;;;;3.70;98826.00;;;;4939401;29;20056;-64
2023/01/30 11:10:55;;;;;;;8.57;6.50;;;;;3.80;98824.00;;;;4938892;29;20058;-64
2023/01/30 11:13:26;;;;;;;8.23;6.18;;;;;3.80;98822.00;;;;4921137;29;20044;-63
2023/01/30 11:15:55;;;;;;;7.10;5.72;;;;;3.80;98826.00;;;;4937778;29;20055;-62
2023/01/30 11:18:25;;;;;;;8.35;6.25;;;;;3.80;98813.00;;;;4920787;29;20497;-62
2023/01/30 11:21:21;;;;;;;9.55;6.25;;;;;3.90;98817.00;;;;4938893;29;20464;-61
2023/01/30 11:23:53;;;;;;;7.60;6.28;;;;;3.90;98835.00;;;;4920832;29;20600;-64
2023/01/30 11:26:24;;;;;;;7.72;5.93;;;;;3.70;98825.00;;;;4936828;29;20055;-62
2023/01/30 11:29:31;;;;;;;6.85;5.60;;;;;3.70;98823.00;;;;4922665;29;20067;-61
2023/01/30 11:32:04;;;;;;;6.75;5.53;;;;;3.70;98818.00;;;;4936434;29;20059;-63
2023/01/30 11:34:31;;;;;;;8.05;6.10;;;;;3.70;98809.00;;;;4919946;29;20131;-61
2023/01/30 11:37:14;;;;;;;8.15;6.32;;;;;3.70;98807.00;;;;4920268;29;20048;-62
2023/01/30 11:39:51;;;;;;;6.88;5.57;;;;;3.80;98814.00;;;;4937683;29;20044;-63
2023/01/30 11:42:23;;;;;;;8.63;6.05;;;;;3.80;98822.00;;;;4937791;29;20661;-62
2023/01/30 11:44:58;;;;;;;7.65;5.55;;;;;3.80;98811.00;;;;4920077;29;20390;-61
2023/01/30 11:48:05;;;;;;;8.07;6.25;;;;;3.80;98808.00;;;;4937271;29;20055;-61
2023/01/30 11:50:43;;;;;;;8.85;6.32;;;;;3.80;98802.00;;;;4937274;29;20118;-62
2023/01/30 11:53:43;;;;;;;8.70;6.43;;;;;3.70;98820.00;;;;4919495;29;20057;-62
2023/01/30 11:56:19;;;;;;;11.63;7.28;;;;;3.70;98823.00;;;;4932354;29;20060;-62
2023/01/30 11:58:57;;;;;;;10.32;7.78;;;;;3.70;98825.00;;;;4936629;29;20050;-61
2023/01/30 12:01:30;;;;;;;10.20;7.50;;;;;3.70;98822.00;;;;4936635;29;20052;-62
2023/01/30 12:03:58;;;;;;;14.63;9.20;;;;;3.70;98824.00;;;;4919797;29;20055;-63
2023/01/30 12:06:24;;;;;;;17.67;9.38;;;;;3.70;98815.00;;;;4936011;29;20052;-61
2023/01/30 12:08:53;;;;;;;12.90;8.38;;;;;3.70;98796.00;;;;4936387;29;20055;-63
2023/01/30 12:11:24;;;;;;;16.77;10.30;;;;;3.80;98801.00;;;;4936324;29;20552;-62
2023/01/30 12:13:54;;;;;;;12.65;7.95;;;;;3.70;98796.00;;;;4936026;29;20497;-62
2023/01/30 12:16:36;;;;;;;14.30;8.77;;;;;3.70;98802.00;;;;4936039;29;20062;-62
2023/01/30 12:19:17;;;;;;;17.80;10.02;;;;;3.80;98803.00;;;;4935201;29;20557;-63
2023/01/30 12:22:08;;;;;;;17.60;9.85;;;;;3.80;98804.00;;;;4935933;29;20046;-62
2023/01/30 12:24:42;;;;;;;13.98;8.48;;;;;3.80;98799.00;;;;4918120;29;20047;-62
2023/01/30 12:27:18;;;;;;;14.63;8.98;;;;;3.80;98792.00;;;;4935843;29;20569;-61
2023/01/30 12:30:00;;;;;;;17.45;9.98;;;;;3.90;98800.00;;;;4935956;29;20055;-62
2023/01/30 12:32:29;;;;;;;17.75;9.25;;;;;3.90;98804.00;;;;4935738;29;20061;-62
2023/01/30 12:34:56;;;;;;;13.40;8.70;;;;;3.90;98818.00;;;;4935079;29;20127;-63
2023/01/30 12:37:22;;;;;;;14.13;7.72;;;;;4.00;98802.00;;;;4935619;29;20516;-63
2023/01/30 12:40:22;;;;;;;15.38;9.70;;;;;4.00;98818.00;;;;4935577;29;20051;-63
2023/01/30 12:43:04;;;;;;;14.65;9.18;;;;;4.00;98826.00;;;;4935572;29;20051;-64
2023/01/30 12:45:37;;;;;;;13.05;9.20;;;;;3.80;98831.00;;;;4935184;29;20095;-63